createdAt,value
2022-09-11T00:01:14.015Z,16.47
2022-09-11T00:03:42.724Z,16.23
2022-09-11T00:06:12.732Z,17.40
2022-09-11T00:08:40.906Z,16.73
2022-09-11T00:11:13.880Z,16.20
2022-09-11T00:13:41.175Z,16.27
2022-09-11T00:16:19.390Z,16.30
2022-09-11T00:18:46.894Z,15.73
2022-09-11T00:21:13.742Z,16.37
2022-09-11T00:23:40.652Z,17.00
2022-09-11T00:26:07.592Z,17.33
2022-09-11T00:28:34.516Z,17.07
2022-09-11T00:31:05.251Z,16.30
2022-09-11T00:33:33.164Z,17.03
2022-09-11T00:36:06.339Z,17.57
2022-09-11T00:38:35.888Z,17.63
2022-09-11T00:41:07.006Z,16.77
2022-09-11T00:44:12.170Z,16.83
2022-09-11T00:46:55.511Z,17.30
2022-09-11T00:49:44.750Z,18.10
2022-09-11T00:52:27.596Z,18.20
2022-09-11T00:55:07.274Z,17.77
2022-09-11T00:57:40.658Z,18.77
2022-09-11T01:00:08.839Z,16.93
2022-09-11T01:02:38.458Z,19.13
2022-09-11T01:05:06.158Z,19.10
2022-09-11T01:07:34.485Z,20.30
2022-09-11T01:10:02.641Z,19.13
2022-09-11T01:13:05.646Z,18.00
2022-09-11T01:15:47.446Z,18.70
2022-09-11T01:18:30.711Z,18.87
2022-09-11T01:21:35.682Z,18.10
2022-09-11T01:24:36.239Z,17.03
2022-09-11T01:27:40.074Z,15.70
2022-09-11T01:30:14.934Z,16.30
2022-09-11T01:32:41.587Z,14.57
2022-09-11T01:35:18.074Z,15.90
2022-09-11T01:37:54.411Z,13.57
2022-09-11T01:40:36.775Z,13.80
2022-09-11T01:43:16.265Z,14.03
2022-09-11T01:45:46.358Z,13.27
2022-09-11T01:48:18.408Z,14.70
2022-09-11T01:50:47.501Z,13.63
2022-09-11T01:53:17.536Z,14.57
2022-09-11T01:55:55.463Z,14.50
2022-09-11T01:58:42.077Z,17.20
2022-09-11T02:01:22.968Z,18.63
2022-09-11T02:03:55.728Z,15.97
2022-09-11T02:06:29.047Z,16.27
2022-09-11T02:09:03.656Z,15.33
2022-09-11T02:11:34.304Z,15.33
2022-09-11T02:14:16.131Z,14.83
2022-09-11T02:16:57.888Z,12.53
2022-09-11T02:19:27.570Z,11.47
2022-09-11T02:21:55.327Z,10.90
2022-09-11T02:24:25.207Z,11.33
2022-09-11T02:26:55.627Z,10.50
2022-09-11T02:29:24.445Z,10.10
2022-09-11T02:31:52.255Z,9.73
2022-09-11T02:34:26.844Z,9.60
2022-09-11T02:36:54.823Z,8.73
2022-09-11T02:39:57.792Z,8.67
2022-09-11T02:42:58.078Z,9.33
2022-09-11T02:45:35.686Z,9.73
2022-09-11T02:48:21.373Z,7.47
2022-09-11T02:51:09.753Z,7.80
2022-09-11T02:54:04.880Z,7.57
2022-09-11T02:57:16.671Z,10.13
2022-09-11T02:59:50.098Z,9.83
2022-09-11T03:02:18.476Z,9.47
2022-09-11T03:04:45.696Z,9.17
2022-09-11T03:07:12.451Z,8.67
2022-09-11T03:09:41.227Z,8.60
2022-09-11T03:12:08.073Z,8.43
2022-09-11T03:14:35.938Z,8.67
2022-09-11T03:17:02.702Z,9.03
2022-09-11T03:19:30.593Z,9.47
2022-09-11T03:21:57.344Z,9.10
2022-09-11T03:24:24.123Z,9.30
2022-09-11T03:26:50.883Z,9.20
2022-09-11T03:29:17.704Z,10.97
2022-09-11T03:31:44.423Z,10.00
2022-09-11T03:34:11.530Z,9.63
2022-09-11T03:36:38.251Z,9.63
2022-09-11T03:39:05.169Z,10.70
2022-09-11T03:41:32.659Z,10.87
2022-09-11T03:43:59.462Z,11.33
2022-09-11T03:46:26.215Z,10.20
2022-09-11T03:48:53.346Z,8.93
2022-09-11T03:51:21.137Z,9.40
2022-09-11T03:53:48.261Z,9.10
2022-09-11T03:56:15.025Z,9.00
2022-09-11T03:58:43.222Z,7.87
2022-09-11T04:01:15.169Z,7.77
2022-09-11T04:03:42.665Z,7.60
2022-09-11T04:06:10.750Z,7.30
2022-09-11T04:08:41.258Z,8.03
2022-09-11T04:11:09.943Z,8.00
2022-09-11T04:13:39.873Z,7.90
2022-09-11T04:16:10.104Z,7.60
2022-09-11T04:18:39.165Z,8.50
2022-09-11T04:21:07.590Z,9.43
2022-09-11T04:23:34.539Z,8.77
2022-09-11T04:26:02.048Z,8.53
2022-09-11T04:28:30.586Z,8.70
2022-09-11T04:31:03.598Z,8.93
2022-09-11T04:33:30.511Z,8.70
2022-09-11T04:35:57.249Z,9.80
2022-09-11T04:38:23.987Z,9.60
2022-09-11T04:40:51.040Z,9.83
2022-09-11T04:43:17.853Z,9.93
2022-09-11T04:45:44.640Z,10.17
2022-09-11T04:48:11.415Z,9.67
2022-09-11T04:50:38.171Z,11.03
2022-09-11T04:53:04.963Z,10.40
2022-09-11T04:55:31.679Z,10.33
2022-09-11T04:57:58.402Z,9.60
2022-09-11T05:00:25.194Z,9.43
2022-09-11T05:02:54.550Z,9.87
2022-09-11T05:05:21.284Z,9.73
2022-09-11T05:07:50.979Z,9.23
2022-09-11T05:10:17.727Z,8.20
2022-09-11T05:12:44.453Z,6.67
2022-09-11T05:15:11.362Z,7.27
2022-09-11T05:17:39.364Z,7.03
2022-09-11T05:20:11.212Z,7.90
2022-09-11T05:22:38.677Z,7.83
2022-09-11T05:25:05.465Z,8.00
2022-09-11T05:27:32.192Z,7.37
2022-09-11T05:29:58.882Z,7.70
2022-09-11T05:32:25.647Z,7.57
2022-09-11T05:34:52.461Z,8.40
2022-09-11T05:37:19.259Z,8.27
2022-09-11T05:39:46.085Z,8.10
2022-09-11T05:42:12.912Z,8.27
2022-09-11T05:44:40.730Z,8.03
2022-09-11T05:47:07.549Z,8.30
2022-09-11T05:49:34.330Z,7.80
2022-09-11T05:52:01.610Z,8.60
2022-09-11T05:54:29.018Z,8.93
2022-09-11T05:56:55.887Z,8.50
2022-09-11T05:59:22.707Z,10.07
2022-09-11T06:01:50.434Z,10.13
2022-09-11T06:04:18.617Z,9.73
2022-09-11T06:06:48.095Z,10.80
2022-09-11T06:09:15.441Z,10.47
2022-09-11T06:11:42.383Z,11.93
2022-09-11T06:14:09.622Z,12.50
2022-09-11T06:16:36.414Z,12.57
2022-09-11T06:19:05.806Z,11.40
2022-09-11T06:21:32.645Z,11.80
2022-09-11T06:23:59.335Z,12.60
2022-09-11T06:26:27.199Z,11.27
2022-09-11T06:28:54.649Z,12.70
2022-09-11T06:31:24.344Z,12.17
2022-09-11T06:33:51.463Z,12.03
2022-09-11T06:36:20.186Z,11.50
2022-09-11T06:38:47.387Z,12.17
2022-09-11T06:41:16.371Z,11.50
2022-09-11T06:43:44.184Z,12.20
2022-09-11T06:46:17.065Z,12.43
2022-09-11T06:48:45.796Z,12.10
2022-09-11T06:51:15.248Z,12.13
2022-09-11T06:53:42.594Z,12.33
2022-09-11T06:56:17.775Z,13.00
2022-09-11T06:58:46.021Z,12.67
2022-09-11T07:01:15.525Z,12.40
2022-09-11T07:03:47.160Z,11.67
2022-09-11T07:06:15.816Z,12.13
2022-09-11T07:08:42.647Z,12.00
2022-09-11T07:11:11.767Z,11.77
2022-09-11T07:13:39.846Z,11.93
2022-09-11T07:16:08.937Z,11.00
2022-09-11T07:18:37.595Z,10.10
2022-09-11T07:21:09.171Z,10.93
2022-09-11T07:23:36.059Z,10.63
2022-09-11T07:26:08.895Z,12.33
2022-09-11T07:28:37.752Z,11.53
2022-09-11T07:31:10.799Z,11.43
2022-09-11T07:33:46.182Z,12.70
2022-09-11T07:36:14.427Z,11.97
2022-09-11T07:38:42.790Z,11.73
2022-09-11T07:41:10.570Z,11.57
2022-09-11T07:43:38.653Z,13.03
2022-09-11T07:46:06.493Z,12.80
2022-09-11T07:48:33.289Z,13.07
2022-09-11T07:51:04.389Z,13.37
2022-09-11T07:53:43.801Z,12.93
2022-09-11T07:56:13.339Z,13.47
2022-09-11T07:58:41.531Z,13.47
2022-09-11T08:01:16.468Z,12.40
2022-09-11T08:03:44.295Z,13.77
2022-09-11T08:06:14.791Z,12.60
2022-09-11T08:08:43.495Z,13.60
2022-09-11T08:11:12.986Z,13.67
2022-09-11T08:13:40.060Z,13.80
2022-09-11T08:16:07.498Z,13.70
2022-09-11T08:18:35.341Z,14.70
2022-09-11T08:21:03.521Z,13.97
2022-09-11T08:23:32.136Z,14.40
2022-09-11T08:26:06.255Z,14.40
2022-09-11T08:28:34.710Z,14.73
2022-09-11T08:31:05.270Z,15.23
2022-09-11T08:33:35.900Z,14.73
2022-09-11T08:36:06.084Z,13.63
2022-09-11T08:38:35.990Z,14.63
2022-09-11T08:41:36.642Z,13.30
2022-09-11T08:44:12.180Z,13.57
2022-09-11T08:46:46.789Z,14.60
2022-09-11T08:49:17.588Z,14.07
2022-09-11T08:51:58.551Z,14.30
2022-09-11T08:54:39.456Z,14.23
2022-09-11T08:57:24.752Z,13.47
2022-09-11T09:00:13.155Z,13.17
2022-09-11T09:02:59.669Z,13.30
2022-09-11T09:05:36.115Z,13.33
2022-09-11T09:08:24.407Z,14.27
2022-09-11T09:11:11.204Z,13.73
2022-09-11T09:14:09.207Z,14.33
2022-09-11T09:17:05.378Z,12.37
2022-09-11T09:20:00.777Z,10.73
2022-09-11T09:22:49.837Z,11.57
2022-09-11T09:25:25.370Z,13.17
2022-09-11T09:28:24.510Z,13.67
2022-09-11T09:31:02.355Z,14.00
2022-09-11T09:33:35.664Z,14.17
2022-09-11T09:36:28.136Z,12.97
2022-09-11T09:38:55.871Z,13.03
2022-09-11T09:41:41.745Z,13.37
2022-09-11T09:44:30.633Z,13.07
2022-09-11T09:46:58.538Z,13.37
2022-09-11T09:49:36.916Z,13.13
2022-09-11T09:52:25.201Z,14.00
2022-09-11T09:55:05.732Z,11.93
2022-09-11T09:57:39.961Z,11.33
2022-09-11T10:00:13.202Z,12.63
2022-09-11T10:02:45.710Z,10.87
2022-09-11T10:05:20.514Z,9.70
2022-09-11T10:07:53.795Z,9.43
2022-09-11T10:10:28.533Z,8.77
2022-09-11T10:13:17.498Z,8.73
2022-09-11T10:15:48.548Z,8.73
2022-09-11T10:18:36.081Z,8.67
2022-09-11T10:21:12.150Z,10.00
2022-09-11T10:23:59.735Z,8.90
2022-09-11T10:26:26.803Z,8.07
2022-09-11T10:29:15.288Z,9.03
2022-09-11T10:31:50.008Z,8.00
2022-09-11T10:34:22.684Z,8.23
2022-09-11T10:36:55.328Z,7.60
2022-09-11T10:39:25.150Z,7.07
2022-09-11T10:41:54.910Z,6.43
2022-09-11T10:44:23.537Z,5.93
2022-09-11T10:47:17.619Z,6.47
2022-09-11T10:49:46.506Z,7.40
2022-09-11T10:52:13.481Z,5.93
2022-09-11T10:55:00.263Z,5.73
2022-09-11T10:57:52.226Z,5.80
2022-09-11T11:00:20.365Z,6.17
2022-09-11T11:02:52.608Z,6.40
2022-09-11T11:05:27.165Z,6.10
2022-09-11T11:08:02.677Z,5.70
2022-09-11T11:10:32.481Z,5.97
2022-09-11T11:13:31.277Z,5.90
2022-09-11T11:16:01.080Z,4.77
2022-09-11T11:18:34.541Z,4.77
2022-09-11T11:21:40.107Z,5.03
2022-09-11T11:24:28.187Z,5.20
2022-09-11T11:27:44.850Z,4.50
2022-09-11T11:30:15.956Z,4.77
2022-09-11T11:33:04.961Z,3.73
2022-09-11T11:36:08.438Z,3.37
2022-09-11T11:39:00.393Z,4.17
2022-09-11T11:41:35.330Z,4.37
2022-09-11T11:44:12.271Z,3.53
2022-09-11T11:46:44.721Z,4.00
2022-09-11T11:49:27.114Z,4.50
2022-09-11T11:52:23.688Z,3.60
2022-09-11T11:55:20.498Z,4.73
2022-09-11T11:58:06.890Z,4.20
2022-09-11T12:00:41.057Z,3.10
2022-09-11T12:03:23.415Z,3.60
2022-09-11T12:05:50.383Z,3.80
2022-09-11T12:08:17.434Z,3.30
2022-09-11T12:10:59.130Z,2.40
2022-09-11T12:13:40.942Z,3.10
2022-09-11T12:16:29.125Z,2.00
2022-09-11T12:19:28.289Z,2.40
2022-09-11T12:21:54.979Z,2.13
2022-09-11T12:24:26.513Z,2.63
2022-09-11T12:27:34.689Z,2.70
2022-09-11T12:30:20.462Z,2.07
2022-09-11T12:32:53.417Z,2.23
2022-09-11T12:35:29.552Z,2.67
2022-09-11T12:38:09.550Z,2.90
2022-09-11T12:40:41.526Z,3.00
2022-09-11T12:43:26.710Z,3.13
2022-09-11T12:45:53.686Z,2.77
2022-09-11T12:48:40.571Z,3.10
2022-09-11T12:51:25.993Z,3.43
2022-09-11T12:53:56.923Z,3.63
2022-09-11T12:56:27.542Z,3.88
2022-09-11T12:58:59.248Z,3.20
2022-09-11T13:01:33.784Z,3.63
2022-09-11T13:04:09.899Z,3.87
2022-09-11T13:06:37.534Z,2.97
2022-09-11T13:09:05.771Z,3.80
2022-09-11T13:11:45.324Z,3.10
2022-09-11T13:14:24.588Z,3.17
2022-09-11T13:16:51.461Z,2.83
2022-09-11T13:19:20.681Z,2.93
2022-09-11T13:21:56.734Z,3.97
2022-09-11T13:24:31.072Z,3.20
2022-09-11T13:27:13.320Z,2.13
2022-09-11T13:29:43.015Z,3.40
2022-09-11T13:32:14.034Z,2.27
2022-09-11T13:34:47.490Z,2.97
2022-09-11T13:37:26.539Z,2.40
2022-09-11T13:39:53.718Z,3.33
2022-09-11T13:42:23.305Z,2.37
2022-09-11T13:44:53.464Z,2.27
2022-09-11T13:47:25.953Z,2.77
2022-09-11T13:49:56.410Z,1.90
2022-09-11T13:52:26.621Z,3.10
2022-09-11T13:54:57.298Z,2.80
2022-09-11T13:57:28.580Z,3.23
2022-09-11T13:59:57.078Z,3.20
2022-09-11T14:02:40.602Z,4.00
2022-09-11T14:05:15.475Z,4.37
2022-09-11T14:07:56.546Z,2.77
2022-09-11T14:10:34.085Z,2.80
2022-09-11T14:13:23.326Z,2.40
2022-09-11T14:15:58.062Z,3.57
2022-09-11T14:18:53.267Z,4.27
2022-09-11T14:21:32.716Z,4.17
2022-09-11T14:24:00.167Z,3.50
2022-09-11T14:26:35.051Z,2.80
2022-09-11T14:29:24.072Z,3.13
2022-09-11T14:31:52.748Z,2.57
2022-09-11T14:34:25.085Z,3.20
2022-09-11T14:37:05.494Z,4.17
2022-09-11T14:39:41.529Z,3.83
2022-09-11T14:42:17.051Z,3.43
2022-09-11T14:44:44.017Z,2.73
2022-09-11T14:47:19.603Z,3.97
2022-09-11T14:49:47.328Z,5.40
2022-09-11T14:52:22.727Z,5.17
2022-09-11T14:54:49.700Z,3.50
2022-09-11T14:57:25.269Z,5.93
2022-09-11T14:59:52.832Z,4.87
2022-09-11T15:02:22.184Z,4.40
2022-09-11T15:04:49.988Z,3.77
2022-09-11T15:07:18.776Z,4.33
2022-09-11T15:09:46.538Z,3.37
2022-09-11T15:12:14.652Z,5.43
2022-09-11T15:14:58.688Z,4.00
2022-09-11T15:17:31.604Z,6.23
2022-09-11T15:19:59.972Z,4.77
2022-09-11T15:22:26.858Z,3.90
2022-09-11T15:24:53.829Z,4.23
2022-09-11T15:27:22.861Z,3.90
2022-09-11T15:29:53.169Z,3.20
2022-09-11T15:32:23.612Z,3.33
2022-09-11T15:34:51.651Z,4.60
2022-09-11T15:37:18.916Z,4.33
2022-09-11T15:39:45.866Z,3.53
2022-09-11T15:42:13.582Z,3.40
2022-09-11T15:44:40.595Z,3.37
2022-09-11T15:47:07.937Z,3.70
2022-09-11T15:49:40.740Z,4.00
2022-09-11T15:52:08.975Z,3.17
2022-09-11T15:54:35.748Z,3.80
2022-09-11T15:57:03.014Z,4.27
2022-09-11T15:59:29.808Z,3.20
2022-09-11T16:01:56.686Z,3.30
2022-09-11T16:04:28.221Z,3.40
2022-09-11T16:06:55.820Z,3.47
2022-09-11T16:09:25.621Z,3.57
2022-09-11T16:11:54.685Z,4.03
2022-09-11T16:14:25.705Z,3.93
2022-09-11T16:16:54.526Z,4.27
2022-09-11T16:19:27.470Z,3.77
2022-09-11T16:21:56.596Z,3.80
2022-09-11T16:24:25.618Z,3.77
2022-09-11T16:26:56.658Z,3.73
2022-09-11T16:29:25.823Z,3.80
2022-09-11T16:31:52.679Z,3.40
2022-09-11T16:34:22.257Z,3.57
2022-09-11T16:36:50.092Z,3.40
2022-09-11T16:39:21.731Z,3.57
2022-09-11T16:41:48.753Z,3.33
2022-09-11T16:44:16.422Z,3.73
2022-09-11T16:46:45.196Z,3.23
2022-09-11T16:49:19.031Z,3.57
2022-09-11T16:51:48.030Z,4.13
2022-09-11T16:54:15.484Z,3.87
2022-09-11T16:56:45.895Z,4.27
2022-09-11T16:59:13.043Z,4.60
2022-09-11T17:01:40.112Z,3.80
2022-09-11T17:04:06.981Z,3.97
2022-09-11T17:06:34.502Z,4.20
2022-09-11T17:09:02.354Z,3.70
2022-09-11T17:11:31.607Z,4.10
2022-09-11T17:14:01.845Z,3.80
2022-09-11T17:16:32.149Z,3.90
2022-09-11T17:19:01.522Z,3.93
2022-09-11T17:21:30.362Z,3.87
2022-09-11T17:23:58.277Z,3.90
2022-09-11T17:26:25.321Z,3.63
2022-09-11T17:28:52.564Z,3.47
2022-09-11T17:31:19.901Z,3.53
2022-09-11T17:33:48.404Z,3.83
2022-09-11T17:36:18.183Z,3.87
2022-09-11T17:38:46.575Z,3.50
2022-09-11T17:41:14.294Z,3.60
2022-09-11T17:43:41.462Z,3.40
2022-09-11T17:46:16.988Z,3.90
2022-09-11T17:48:44.542Z,3.63
2022-09-11T17:51:21.251Z,3.80
2022-09-11T17:53:51.206Z,4.27
2022-09-11T17:56:21.119Z,3.83
2022-09-11T17:58:53.254Z,3.93
2022-09-11T18:01:20.440Z,3.90
2022-09-11T18:03:53.077Z,4.77
2022-09-11T18:06:30.319Z,4.10
2022-09-11T18:09:03.061Z,4.30
2022-09-11T18:11:30.663Z,4.33
2022-09-11T18:14:00.176Z,4.93
2022-09-11T18:16:27.177Z,5.00
2022-09-11T18:18:55.551Z,4.47
2022-09-11T18:21:26.781Z,4.90
2022-09-11T18:24:00.842Z,5.10
2022-09-11T18:26:30.183Z,4.70
2022-09-11T18:29:00.099Z,4.10
2022-09-11T18:31:30.119Z,4.37
2022-09-11T18:34:05.889Z,4.17
2022-09-11T18:36:34.132Z,4.67
2022-09-11T18:39:08.509Z,3.83
2022-09-11T18:41:35.693Z,4.03
2022-09-11T18:44:05.299Z,4.37
2022-09-11T18:46:35.398Z,4.13
2022-09-11T18:49:02.357Z,4.40
2022-09-11T18:51:42.350Z,4.73
2022-09-11T18:54:23.489Z,5.10
2022-09-11T18:56:50.647Z,4.93
2022-09-11T18:59:19.992Z,5.60
2022-09-11T19:01:47.554Z,5.67
2022-09-11T19:04:16.528Z,5.40
2022-09-11T19:06:49.632Z,5.83
2022-09-11T19:09:16.798Z,6.40
2022-09-11T19:11:43.620Z,6.70
2022-09-11T19:14:11.804Z,6.63
2022-09-11T19:16:43.531Z,6.40
2022-09-11T19:19:10.885Z,7.10
2022-09-11T19:21:40.432Z,6.53
2022-09-11T19:24:12.956Z,6.77
2022-09-11T19:26:43.662Z,6.30
2022-09-11T19:29:11.033Z,6.50
2022-09-11T19:31:39.453Z,6.50
2022-09-11T19:34:14.900Z,7.40
2022-09-11T19:36:41.857Z,7.87
2022-09-11T19:39:10.547Z,7.37
2022-09-11T19:41:38.626Z,8.57
2022-09-11T19:44:12.121Z,8.37
2022-09-11T19:46:41.268Z,7.67
2022-09-11T19:49:09.216Z,7.23
2022-09-11T19:51:38.626Z,7.40
2022-09-11T19:54:06.453Z,7.47
2022-09-11T19:56:38.962Z,7.60
2022-09-11T19:59:07.999Z,7.07
2022-09-11T20:01:35.742Z,7.20
2022-09-11T20:04:03.393Z,8.10
2022-09-11T20:06:33.000Z,7.97
2022-09-11T20:09:29.976Z,8.10
2022-09-11T20:11:48.032Z,7.93
2022-09-11T20:14:14.811Z,9.30
2022-09-11T20:16:41.675Z,8.80
2022-09-11T20:19:12.401Z,8.73
2022-09-11T20:21:39.431Z,9.33
2022-09-11T20:24:07.370Z,8.83
2022-09-11T20:26:34.382Z,8.73
2022-09-11T20:29:07.304Z,9.73
2022-09-11T20:31:47.503Z,9.77
2022-09-11T20:34:17.374Z,10.03
2022-09-11T20:36:44.360Z,9.93
2022-09-11T20:39:13.664Z,10.10
2022-09-11T20:41:40.838Z,10.27
2022-09-11T20:44:07.847Z,9.43
2022-09-11T20:46:34.739Z,10.50
2022-09-11T20:49:03.026Z,10.33
2022-09-11T20:51:30.657Z,10.43
2022-09-11T20:53:57.715Z,9.63
2022-09-11T20:56:25.030Z,10.10
2022-09-11T20:58:52.696Z,10.57
2022-09-11T21:01:22.775Z,10.50
2022-09-11T21:03:54.663Z,10.70
2022-09-11T21:06:26.968Z,10.30
2022-09-11T21:08:56.473Z,11.33
2022-09-11T21:11:27.133Z,11.37
2022-09-11T21:13:59.338Z,11.43
2022-09-11T21:16:27.128Z,10.73
2022-09-11T21:18:57.333Z,11.33
2022-09-11T21:21:28.035Z,10.93
2022-09-11T21:24:01.249Z,11.10
2022-09-11T21:26:29.258Z,11.07
2022-09-11T21:28:57.346Z,11.50
2022-09-11T21:31:25.752Z,11.83
2022-09-11T21:33:58.709Z,11.67
2022-09-11T21:36:26.198Z,11.33
2022-09-11T21:38:53.419Z,13.03
2022-09-11T21:41:20.389Z,12.40
2022-09-11T21:43:47.546Z,12.07
2022-09-11T21:46:15.141Z,11.87
2022-09-11T21:48:44.588Z,11.53
2022-09-11T21:51:17.100Z,12.30
2022-09-11T21:53:45.831Z,12.07
2022-09-11T21:56:21.561Z,11.87
2022-09-11T21:58:50.989Z,11.63
2022-09-11T22:01:19.979Z,11.80
2022-09-11T22:03:46.993Z,12.07
2022-09-11T22:06:14.369Z,12.13
2022-09-11T22:08:42.679Z,12.57
2022-09-11T22:11:10.456Z,12.53
2022-09-11T22:13:37.907Z,12.53
2022-09-11T22:16:13.456Z,12.33
2022-09-11T22:18:41.496Z,12.83
2022-09-11T22:21:09.045Z,12.77
2022-09-11T22:23:36.230Z,12.10
2022-09-11T22:26:05.656Z,12.27
2022-09-11T22:28:32.712Z,13.53
2022-09-11T22:30:59.537Z,13.53
2022-09-11T22:33:26.571Z,11.50
2022-09-11T22:35:53.424Z,9.83
2022-09-11T22:38:22.933Z,6.73
2022-09-11T22:40:53.649Z,6.03
2022-09-11T22:43:20.697Z,7.17
2022-09-11T22:45:57.443Z,9.27
2022-09-11T22:48:27.682Z,8.53
2022-09-11T22:50:57.106Z,9.77
2022-09-11T22:53:24.980Z,9.43
2022-09-11T22:55:54.153Z,10.07
2022-09-11T22:58:22.219Z,10.50
2022-09-11T23:00:50.476Z,9.90
2022-09-11T23:03:17.475Z,11.50
2022-09-11T23:06:04.264Z,10.83
2022-09-11T23:08:38.961Z,10.80
2022-09-11T23:11:06.762Z,11.23
2022-09-11T23:13:34.474Z,12.37
2022-09-11T23:16:13.813Z,11.70
2022-09-11T23:18:41.157Z,12.40
2022-09-11T23:21:08.543Z,13.10
2022-09-11T23:23:40.895Z,13.10
2022-09-11T23:26:11.917Z,11.90
2022-09-11T23:28:39.780Z,13.83
2022-09-11T23:31:17.451Z,14.47
2022-09-11T23:33:44.322Z,14.13
2022-09-11T23:36:13.488Z,13.33
2022-09-11T23:38:40.634Z,14.23
2022-09-11T23:41:07.741Z,15.20
2022-09-11T23:43:34.752Z,14.27
2022-09-11T23:46:01.638Z,15.57
2022-09-11T23:48:28.790Z,14.80
2022-09-11T23:50:55.542Z,14.80
2022-09-11T23:53:25.354Z,15.73
2022-09-11T23:55:52.211Z,14.87
2022-09-11T23:58:18.984Z,14.67
